sensor_id;sensor_type;location;lat;lon;timestamp;temperature;humidity
13148;DHT22;6639;50.956;4.242;2023-02-08T08:42:44;14.40;92.20
13148;DHT22;6639;50.956;4.242;2023-02-08T08:45:11;14.60;92.50
13148;DHT22;6639;50.956;4.242;2023-02-08T08:47:38;15.10;92.50
13148;DHT22;6639;50.956;4.242;2023-02-08T08:50:09;15.40;92.70
13148;DHT22;6639;50.956;4.242;2023-02-08T08:52:36;15.80;92.50
13148;DHT22;6639;50.956;4.242;2023-02-08T08:55:05;16.40;92.00
13148;DHT22;6639;50.956;4.242;2023-02-08T08:57:34;16.60;91.90
13148;DHT22;6639;50.956;4.242;2023-02-08T09:00:04;17.10;91.20
13148;DHT22;6639;50.956;4.242;2023-02-08T09:02:31;17.70;90.30
13148;DHT22;6639;50.956;4.242;2023-02-08T09:04:59;17.90;89.30
13148;DHT22;6639;50.956;4.242;2023-02-08T09:07:27;17.70;90.10
13148;DHT22;6639;50.956;4.242;2023-02-08T09:09:54;17.90;90.50
13148;DHT22;6639;50.956;4.242;2023-02-08T09:12:24;18.10;89.60
13148;DHT22;6639;50.956;4.242;2023-02-08T09:14:51;18.10;87.50
13148;DHT22;6639;50.956;4.242;2023-02-08T09:17:20;17.90;85.70
13148;DHT22;6639;50.956;4.242;2023-02-08T09:19:50;18.00;86.60
13148;DHT22;6639;50.956;4.242;2023-02-08T09:22:17;18.20;85.30
13148;DHT22;6639;50.956;4.242;2023-02-08T09:24:44;17.80;82.80
13148;DHT22;6639;50.956;4.242;2023-02-08T09:27:12;17.70;83.40
13148;DHT22;6639;50.956;4.242;2023-02-08T09:29:42;18.20;82.50
13148;DHT22;6639;50.956;4.242;2023-02-08T09:32:12;18.60;84.20
13148;DHT22;6639;50.956;4.242;2023-02-08T09:34:40;18.30;78.90
13148;DHT22;6639;50.956;4.242;2023-02-08T09:37:07;18.30;76.70
13148;DHT22;6639;50.956;4.242;2023-02-08T09:39:35;18.40;75.40
13148;DHT22;6639;50.956;4.242;2023-02-08T09:42:15;18.10;74.80
13148;DHT22;6639;50.956;4.242;2023-02-08T09:45:11;17.50;75.80
13148;DHT22;6639;50.956;4.242;2023-02-08T09:47:51;17.40;77.60
13148;DHT22;6639;50.956;4.242;2023-02-08T09:50:28;17.20;76.70
13148;DHT22;6639;50.956;4.242;2023-02-08T09:53:03;17.50;78.30
13148;DHT22;6639;50.956;4.242;2023-02-08T09:55:36;17.80;78.50
13148;DHT22;6639;50.956;4.242;2023-02-08T09:58:11;18.40;78.50
13148;DHT22;6639;50.956;4.242;2023-02-08T10:00:45;18.30;76.80
13148;DHT22;6639;50.956;4.242;2023-02-08T10:03:32;19.00;79.20
13148;DHT22;6639;50.956;4.242;2023-02-08T10:06:03;19.50;78.20
13148;DHT22;6639;50.956;4.242;2023-02-08T10:08:31;19.70;77.20
13148;DHT22;6639;50.956;4.242;2023-02-08T10:11:15;19.90;74.70
13148;DHT22;6639;50.956;4.242;2023-02-08T10:13:59;20.20;74.30
13148;DHT22;6639;50.956;4.242;2023-02-08T10:16:47;20.60;71.80
13148;DHT22;6639;50.956;4.242;2023-02-08T10:19:29;21.00;73.40
13148;DHT22;6639;50.956;4.242;2023-02-08T10:22:07;21.00;71.10
13148;DHT22;6639;50.956;4.242;2023-02-08T10:24:53;20.80;71.10
13148;DHT22;6639;50.956;4.242;2023-02-08T10:27:31;20.40;72.20
13148;DHT22;6639;50.956;4.242;2023-02-08T10:30:12;20.50;71.50
13148;DHT22;6639;50.956;4.242;2023-02-08T10:32:54;21.20;69.50
13148;DHT22;6639;50.956;4.242;2023-02-08T10:35:27;21.20;69.40
13148;DHT22;6639;50.956;4.242;2023-02-08T10:37:58;21.00;65.60
13148;DHT22;6639;50.956;4.242;2023-02-08T10:40:34;20.30;66.10
13148;DHT22;6639;50.956;4.242;2023-02-08T10:43:14;20.10;68.20
13148;DHT22;6639;50.956;4.242;2023-02-08T10:45:48;21.00;64.70
13148;DHT22;6639;50.956;4.242;2023-02-08T10:48:26;21.30;63.40
13148;DHT22;6639;50.956;4.242;2023-02-08T10:50:55;21.80;66.00
13148;DHT22;6639;50.956;4.242;2023-02-08T10:53:23;22.30;64.30
13148;DHT22;6639;50.956;4.242;2023-02-08T10:55:51;22.40;63.10
13148;DHT22;6639;50.956;4.242;2023-02-08T10:58:20;22.70;62.70
13148;DHT22;6639;50.956;4.242;2023-02-08T11:00:48;22.90;59.10
13148;DHT22;6639;50.956;4.242;2023-02-08T11:03:19;23.30;62.10
13148;DHT22;6639;50.956;4.242;2023-02-08T11:05:46;22.90;59.00
13148;DHT22;6639;50.956;4.242;2023-02-08T11:08:15;22.90;61.40
13148;DHT22;6639;50.956;4.242;2023-02-08T11:10:55;21.80;55.70
13148;DHT22;6639;50.956;4.242;2023-02-08T11:13:25;22.00;55.50
13148;DHT22;6639;50.956;4.242;2023-02-08T11:15:55;22.10;58.30
13148;DHT22;6639;50.956;4.242;2023-02-08T11:18:26;22.60;55.50
13148;DHT22;6639;50.956;4.242;2023-02-08T11:20:57;22.90;56.40
13148;DHT22;6639;50.956;4.242;2023-02-08T11:23:29;22.40;52.80
13148;DHT22;6639;50.956;4.242;2023-02-08T11:29:01;22.40;56.60
13148;DHT22;6639;50.956;4.242;2023-02-08T11:31:31;22.70;53.40
13148;DHT22;6639;50.956;4.242;2023-02-08T11:34:01;22.70;52.90
13148;DHT22;6639;50.956;4.242;2023-02-08T11:36:30;22.60;56.00
13148;DHT22;6639;50.956;4.242;2023-02-08T11:39:00;22.80;55.00
13148;DHT22;6639;50.956;4.242;2023-02-08T11:41:28;22.70;53.90
13148;DHT22;6639;50.956;4.242;2023-02-08T11:44:00;21.50;53.20
13148;DHT22;6639;50.956;4.242;2023-02-08T11:46:32;21.00;53.70
13148;DHT22;6639;50.956;4.242;2023-02-08T11:48:59;20.90;55.60
13148;DHT22;6639;50.956;4.242;2023-02-08T11:51:30;21.30;53.70
13148;DHT22;6639;50.956;4.242;2023-02-08T11:53:57;20.90;55.20
13148;DHT22;6639;50.956;4.242;2023-02-08T11:56:27;20.90;52.50
13148;DHT22;6639;50.956;4.242;2023-02-08T12:02:36;22.20;54.40
13148;DHT22;6639;50.956;4.242;2023-02-08T12:15:18;20.80;53.00
13148;DHT22;6639;50.956;4.242;2023-02-08T12:18:02;20.90;53.40
13148;DHT22;6639;50.956;4.242;2023-02-08T12:20:36;20.50;53.50
13148;DHT22;6639;50.956;4.242;2023-02-08T12:23:22;20.70;50.30
13148;DHT22;6639;50.956;4.242;2023-02-08T12:25:58;20.70;54.10
13148;DHT22;6639;50.956;4.242;2023-02-08T12:28:51;21.20;53.80
13148;DHT22;6639;50.956;4.242;2023-02-08T12:31:25;20.40;48.80
13148;DHT22;6639;50.956;4.242;2023-02-08T12:34:09;20.90;53.70
13148;DHT22;6639;50.956;4.242;2023-02-08T12:36:54;20.90;52.20
13148;DHT22;6639;50.956;4.242;2023-02-08T12:39:43;21.10;54.70
13148;DHT22;6639;50.956;4.242;2023-02-08T12:42:41;21.10;56.10
13148;DHT22;6639;50.956;4.242;2023-02-08T12:45:35;21.90;53.50
13148;DHT22;6639;50.956;4.242;2023-02-08T12:48:16;21.20;53.40
13148;DHT22;6639;50.956;4.242;2023-02-08T12:50:52;20.70;51.10
13148;DHT22;6639;50.956;4.242;2023-02-08T12:53:24;20.10;52.10
13148;DHT22;6639;50.956;4.242;2023-02-08T12:56:01;18.90;52.80
13148;DHT22;6639;50.956;4.242;2023-02-08T12:58:35;18.70;53.90
13148;DHT22;6639;50.956;4.242;2023-02-08T13:01:08;18.40;54.50
13148;DHT22;6639;50.956;4.242;2023-02-08T13:03:41;18.00;53.70
13148;DHT22;6639;50.956;4.242;2023-02-08T13:06:16;17.50;55.00
13148;DHT22;6639;50.956;4.242;2023-02-08T13:08:47;17.70;55.70
13148;DHT22;6639;50.956;4.242;2023-02-08T13:11:21;18.40;53.90
13148;DHT22;6639;50.956;4.242;2023-02-08T13:13:56;18.80;53.00
13148;DHT22;6639;50.956;4.242;2023-02-08T13:16:27;19.20;53.70
13148;DHT22;6639;50.956;4.242;2023-02-08T13:19:20;19.20;55.10
13148;DHT22;6639;50.956;4.242;2023-02-08T13:21:52;18.60;54.20
13148;DHT22;6639;50.956;4.242;2023-02-08T13:24:27;19.10;55.30
13148;DHT22;6639;50.956;4.242;2023-02-08T13:26:55;18.70;55.40
13148;DHT22;6639;50.956;4.242;2023-02-08T13:29:23;18.90;54.70
13148;DHT22;6639;50.956;4.242;2023-02-08T13:31:55;18.40;50.60
13148;DHT22;6639;50.956;4.242;2023-02-08T13:34:30;18.20;56.10
13148;DHT22;6639;50.956;4.242;2023-02-08T13:37:06;18.00;52.10
13148;DHT22;6639;50.956;4.242;2023-02-08T13:39:44;17.60;54.80
13148;DHT22;6639;50.956;4.242;2023-02-08T13:42:20;17.20;53.80
13148;DHT22;6639;50.956;4.242;2023-02-08T13:44:49;16.80;55.00
13148;DHT22;6639;50.956;4.242;2023-02-08T13:47:25;17.60;55.90
13148;DHT22;6639;50.956;4.242;2023-02-08T13:49:56;18.00;56.60
13148;DHT22;6639;50.956;4.242;2023-02-08T14:01:27;18.00;55.20
13148;DHT22;6639;50.956;4.242;2023-02-08T14:04:26;18.10;55.00
13148;DHT22;6639;50.956;4.242;2023-02-08T14:06:58;18.10;57.10
13148;DHT22;6639;50.956;4.242;2023-02-08T14:09:35;16.80;54.50
13148;DHT22;6639;50.956;4.242;2023-02-08T14:12:13;16.60;54.90
13148;DHT22;6639;50.956;4.242;2023-02-08T14:14:41;16.10;53.70
13148;DHT22;6639;50.956;4.242;2023-02-08T14:17:15;16.10;57.10
13148;DHT22;6639;50.956;4.242;2023-02-08T14:19:45;16.70;56.30
13148;DHT22;6639;50.956;4.242;2023-02-08T14:22:21;16.90;57.70
13148;DHT22;6639;50.956;4.242;2023-02-08T14:25:01;16.70;55.10
13148;DHT22;6639;50.956;4.242;2023-02-08T14:27:34;16.10;54.60
13148;DHT22;6639;50.956;4.242;2023-02-08T14:30:05;15.80;54.20
13148;DHT22;6639;50.956;4.242;2023-02-08T14:32:36;15.40;54.80
13148;DHT22;6639;50.956;4.242;2023-02-08T14:35:05;15.50;53.70
13148;DHT22;6639;50.956;4.242;2023-02-08T14:37:34;15.50;55.30
13148;DHT22;6639;50.956;4.242;2023-02-08T14:40:33;16.20;57.80
13148;DHT22;6639;50.956;4.242;2023-02-08T14:43:31;16.70;54.90
13148;DHT22;6639;50.956;4.242;2023-02-08T14:46:42;15.20;56.20
13148;DHT22;6639;50.956;4.242;2023-02-08T14:49:12;15.60;58.30
13148;DHT22;6639;50.956;4.242;2023-02-08T14:51:43;16.00;58.90
13148;DHT22;6639;50.956;4.242;2023-02-08T14:54:18;15.90;57.30
13148;DHT22;6639;50.956;4.242;2023-02-08T14:56:53;16.10;57.40
13148;DHT22;6639;50.956;4.242;2023-02-08T14:59:25;15.70;58.60
13148;DHT22;6639;50.956;4.242;2023-02-08T15:01:55;15.30;58.50
13148;DHT22;6639;50.956;4.242;2023-02-08T15:04:23;15.30;60.00
13148;DHT22;6639;50.956;4.242;2023-02-08T15:07:18;15.00;59.10
13148;DHT22;6639;50.956;4.242;2023-02-08T15:09:46;15.60;59.80
13148;DHT22;6639;50.956;4.242;2023-02-08T15:12:17;15.60;58.50
13148;DHT22;6639;50.956;4.242;2023-02-08T15:14:46;15.80;58.40
13148;DHT22;6639;50.956;4.242;2023-02-08T15:17:29;15.60;57.00
13148;DHT22;6639;50.956;4.242;2023-02-08T15:19:58;15.50;58.50
13148;DHT22;6639;50.956;4.242;2023-02-08T15:22:32;14.90;58.20
13148;DHT22;6639;50.956;4.242;2023-02-08T15:25:00;14.30;57.70
13148;DHT22;6639;50.956;4.242;2023-02-08T15:27:33;14.20;58.90
13148;DHT22;6639;50.956;4.242;2023-02-08T15:30:20;14.50;61.20
13148;DHT22;6639;50.956;4.242;2023-02-08T15:32:47;14.70;59.90
13148;DHT22;6639;50.956;4.242;2023-02-08T15:35:18;14.40;59.00
13148;DHT22;6639;50.956;4.242;2023-02-08T15:37:47;13.30;59.60
13148;DHT22;6639;50.956;4.242;2023-02-08T15:40:22;13.00;61.80
13148;DHT22;6639;50.956;4.242;2023-02-08T15:42:49;13.50;60.70
13148;DHT22;6639;50.956;4.242;2023-02-08T15:45:22;13.50;59.00
13148;DHT22;6639;50.956;4.242;2023-02-08T15:47:50;13.20;61.00
13148;DHT22;6639;50.956;4.242;2023-02-08T15:50:20;13.80;62.10
13148;DHT22;6639;50.956;4.242;2023-02-08T15:52:57;13.50;62.10
13148;DHT22;6639;50.956;4.242;2023-02-08T15:55:28;13.20;62.00
13148;DHT22;6639;50.956;4.242;2023-02-08T15:58:01;13.30;61.60
13148;DHT22;6639;50.956;4.242;2023-02-08T16:00:34;13.10;62.00
13148;DHT22;6639;50.956;4.242;2023-02-08T16:03:05;12.90;63.20
13148;DHT22;6639;50.956;4.242;2023-02-08T16:05:34;12.80;63.80
13148;DHT22;6639;50.956;4.242;2023-02-08T16:08:02;13.30;63.90
13148;DHT22;6639;50.956;4.242;2023-02-08T16:10:33;13.00;64.20
13148;DHT22;6639;50.956;4.242;2023-02-08T16:13:03;13.70;65.70
13148;DHT22;6639;50.956;4.242;2023-02-08T16:15:40;13.70;64.20
13148;DHT22;6639;50.956;4.242;2023-02-08T16:21:21;15.40;64.40
13148;DHT22;6639;50.956;4.242;2023-02-08T16:23:53;15.90;63.50
13148;DHT22;6639;50.956;4.242;2023-02-08T16:26:23;16.10;62.80
13148;DHT22;6639;50.956;4.242;2023-02-08T16:28:57;16.30;62.60
13148;DHT22;6639;50.956;4.242;2023-02-08T16:31:28;16.30;62.80
13148;DHT22;6639;50.956;4.242;2023-02-08T16:34:01;16.30;62.40
13148;DHT22;6639;50.956;4.242;2023-02-08T16:36:33;16.50;62.40
13148;DHT22;6639;50.956;4.242;2023-02-08T16:42:05;16.30;59.30
13148;DHT22;6639;50.956;4.242;2023-02-08T16:44:34;16.30;60.80
13148;DHT22;6639;50.956;4.242;2023-02-08T16:47:24;16.40;62.20
13148;DHT22;6639;50.956;4.242;2023-02-08T16:49:51;16.30;62.10
13148;DHT22;6639;50.956;4.242;2023-02-08T16:52:18;16.20;61.60
13148;DHT22;6639;50.956;4.242;2023-02-08T16:54:48;15.80;59.50
13148;DHT22;6639;50.956;4.242;2023-02-08T16:57:15;15.90;61.10
13148;DHT22;6639;50.956;4.242;2023-02-08T16:59:42;15.90;61.80
13148;DHT22;6639;50.956;4.242;2023-02-08T17:02:13;15.80;62.10
13148;DHT22;6639;50.956;4.242;2023-02-08T17:04:40;15.90;62.20
13148;DHT22;6639;50.956;4.242;2023-02-08T17:07:10;15.90;63.00
13148;DHT22;6639;50.956;4.242;2023-02-08T17:09:42;15.90;62.80
13148;DHT22;6639;50.956;4.242;2023-02-08T17:12:09;15.80;62.30
13148;DHT22;6639;50.956;4.242;2023-02-08T17:14:38;15.90;62.90
13148;DHT22;6639;50.956;4.242;2023-02-08T17:17:05;15.80;63.20
13148;DHT22;6639;50.956;4.242;2023-02-08T17:19:33;15.70;62.50
13148;DHT22;6639;50.956;4.242;2023-02-08T17:22:00;15.60;61.70
13148;DHT22;6639;50.956;4.242;2023-02-08T17:24:28;15.50;61.60
13148;DHT22;6639;50.956;4.242;2023-02-08T17:27:00;15.50;62.40
13148;DHT22;6639;50.956;4.242;2023-02-08T17:29:29;15.30;62.50
13148;DHT22;6639;50.956;4.242;2023-02-08T17:32:01;15.20;62.90
13148;DHT22;6639;50.956;4.242;2023-02-08T17:34:31;15.10;63.50
13148;DHT22;6639;50.956;4.242;2023-02-08T17:37:02;15.00;63.20
13148;DHT22;6639;50.956;4.242;2023-02-08T17:39:30;14.90;63.20
13148;DHT22;6639;50.956;4.242;2023-02-08T17:42:01;14.90;63.70
13148;DHT22;6639;50.956;4.242;2023-02-08T17:44:29;14.80;64.10
13148;DHT22;6639;50.956;4.242;2023-02-08T17:46:59;14.70;64.30
13148;DHT22;6639;50.956;4.242;2023-02-08T17:49:42;14.60;65.10
13148;DHT22;6639;50.956;4.242;2023-02-08T17:52:10;14.50;64.80
13148;DHT22;6639;50.956;4.242;2023-02-08T17:54:38;14.40;64.90
13148;DHT22;6639;50.956;4.242;2023-02-08T17:57:07;14.30;65.50
13148;DHT22;6639;50.956;4.242;2023-02-08T17:59:40;14.20;66.00
13148;DHT22;6639;50.956;4.242;2023-02-08T18:02:15;14.20;66.10
13148;DHT22;6639;50.956;4.242;2023-02-08T18:04:44;14.20;66.10
13148;DHT22;6639;50.956;4.242;2023-02-08T18:07:16;14.00;66.30
13148;DHT22;6639;50.956;4.242;2023-02-08T18:09:44;14.00;66.30
13148;DHT22;6639;50.956;4.242;2023-02-08T18:12:12;13.90;66.40
13148;DHT22;6639;50.956;4.242;2023-02-08T18:14:40;13.80;66.90
13148;DHT22;6639;50.956;4.242;2023-02-08T18:17:17;13.70;67.40
13148;DHT22;6639;50.956;4.242;2023-02-08T18:19:46;13.70;67.70
13148;DHT22;6639;50.956;4.242;2023-02-08T18:22:17;13.60;67.50
13148;DHT22;6639;50.956;4.242;2023-02-08T18:24:55;13.50;66.80
13148;DHT22;6639;50.956;4.242;2023-02-08T18:27:38;13.20;67.80
13148;DHT22;6639;50.956;4.242;2023-02-08T18:30:07;13.10;69.20
13148;DHT22;6639;50.956;4.242;2023-02-08T18:32:39;12.90;69.10
13148;DHT22;6639;50.956;4.242;2023-02-08T18:35:09;12.90;69.60
13148;DHT22;6639;50.956;4.242;2023-02-08T18:37:43;12.90;69.70
13148;DHT22;6639;50.956;4.242;2023-02-08T18:40:24;12.90;69.80
13148;DHT22;6639;50.956;4.242;2023-02-08T18:42:57;12.80;70.00
13148;DHT22;6639;50.956;4.242;2023-02-08T18:45:25;12.90;70.40
13148;DHT22;6639;50.956;4.242;2023-02-08T18:47:52;12.80;70.60
13148;DHT22;6639;50.956;4.242;2023-02-08T18:50:20;12.70;70.20
13148;DHT22;6639;50.956;4.242;2023-02-08T18:52:58;12.40;70.40
13148;DHT22;6639;50.956;4.242;2023-02-08T18:55:25;12.60;70.70
13148;DHT22;6639;50.956;4.242;2023-02-08T18:57:52;12.50;70.50
13148;DHT22;6639;50.956;4.242;2023-02-08T19:00:21;12.50;70.90
13148;DHT22;6639;50.956;4.242;2023-02-08T19:02:48;12.40;70.80
13148;DHT22;6639;50.956;4.242;2023-02-08T19:05:16;12.40;70.80
13148;DHT22;6639;50.956;4.242;2023-02-08T19:07:44;12.40;71.40
13148;DHT22;6639;50.956;4.242;2023-02-08T19:10:15;12.40;71.40
13148;DHT22;6639;50.956;4.242;2023-02-08T19:12:45;12.40;72.20
13148;DHT22;6639;50.956;4.242;2023-02-08T19:15:12;12.30;72.30
13148;DHT22;6639;50.956;4.242;2023-02-08T19:17:40;12.10;72.60
13148;DHT22;6639;50.956;4.242;2023-02-08T19:20:10;12.10;72.50
13148;DHT22;6639;50.956;4.242;2023-02-08T19:22:40;12.00;74.50
13148;DHT22;6639;50.956;4.242;2023-02-08T19:25:09;12.00;74.00
13148;DHT22;6639;50.956;4.242;2023-02-08T19:27:42;12.10;73.70
13148;DHT22;6639;50.956;4.242;2023-02-08T19:30:10;12.10;73.80
13148;DHT22;6639;50.956;4.242;2023-02-08T19:32:56;12.10;73.70
13148;DHT22;6639;50.956;4.242;2023-02-08T19:35:24;12.00;73.80
13148;DHT22;6639;50.956;4.242;2023-02-08T19:37:51;12.00;73.80
13148;DHT22;6639;50.956;4.242;2023-02-08T19:40:23;12.00;74.00
13148;DHT22;6639;50.956;4.242;2023-02-08T19:42:52;12.00;74.20
13148;DHT22;6639;50.956;4.242;2023-02-08T19:45:19;12.00;74.10
13148;DHT22;6639;50.956;4.242;2023-02-08T19:47:47;11.80;74.20
13148;DHT22;6639;50.956;4.242;2023-02-08T19:50:15;11.90;74.40
13148;DHT22;6639;50.956;4.242;2023-02-08T19:52:46;11.80;75.30
13148;DHT22;6639;50.956;4.242;2023-02-08T19:55:13;11.80;74.70
13148;DHT22;6639;50.956;4.242;2023-02-08T19:58:18;11.80;74.50
13148;DHT22;6639;50.956;4.242;2023-02-08T20:00:45;11.70;74.80
13148;DHT22;6639;50.956;4.242;2023-02-08T20:03:13;11.60;74.50
13148;DHT22;6639;50.956;4.242;2023-02-08T20:05:41;11.50;74.60
13148;DHT22;6639;50.956;4.242;2023-02-08T20:08:09;11.40;74.90
13148;DHT22;6639;50.956;4.242;2023-02-08T20:10:37;11.30;74.80
13148;DHT22;6639;50.956;4.242;2023-02-08T20:13:04;11.30;75.60
13148;DHT22;6639;50.956;4.242;2023-02-08T20:15:40;11.10;75.30
13148;DHT22;6639;50.956;4.242;2023-02-08T20:18:09;11.20;75.70
13148;DHT22;6639;50.956;4.242;2023-02-08T20:20:37;11.10;75.70
13148;DHT22;6639;50.956;4.242;2023-02-08T20:23:05;11.10;76.00
13148;DHT22;6639;50.956;4.242;2023-02-08T20:26:05;11.00;76.20
13148;DHT22;6639;50.956;4.242;2023-02-08T20:28:32;10.90;76.30
13148;DHT22;6639;50.956;4.242;2023-02-08T20:31:05;11.00;76.00
13148;DHT22;6639;50.956;4.242;2023-02-08T20:33:35;11.00;76.20
13148;DHT22;6639;50.956;4.242;2023-02-08T20:36:08;10.90;76.10
13148;DHT22;6639;50.956;4.242;2023-02-08T20:38:42;11.00;76.30
13148;DHT22;6639;50.956;4.242;2023-02-08T20:41:14;10.90;76.10
13148;DHT22;6639;50.956;4.242;2023-02-08T20:43:43;10.90;76.60
13148;DHT22;6639;50.956;4.242;2023-02-08T20:46:17;10.80;76.60
13148;DHT22;6639;50.956;4.242;2023-02-08T20:48:47;10.80;76.90
13148;DHT22;6639;50.956;4.242;2023-02-08T20:51:16;10.60;77.00
13148;DHT22;6639;50.956;4.242;2023-02-08T20:53:46;10.70;77.50
13148;DHT22;6639;50.956;4.242;2023-02-08T20:56:15;10.70;77.50
13148;DHT22;6639;50.956;4.242;2023-02-08T20:58:59;10.70;77.60
13148;DHT22;6639;50.956;4.242;2023-02-08T21:01:33;10.70;77.80
13148;DHT22;6639;50.956;4.242;2023-02-08T21:04:04;10.60;78.10
13148;DHT22;6639;50.956;4.242;2023-02-08T21:06:32;10.50;78.10
13148;DHT22;6639;50.956;4.242;2023-02-08T21:09:14;10.50;78.20
13148;DHT22;6639;50.956;4.242;2023-02-08T21:11:43;10.50;78.30
13148;DHT22;6639;50.956;4.242;2023-02-08T21:14:13;10.30;78.20
13148;DHT22;6639;50.956;4.242;2023-02-08T21:16:44;10.40;78.30
13148;DHT22;6639;50.956;4.242;2023-02-08T21:19:12;10.40;78.30
13148;DHT22;6639;50.956;4.242;2023-02-08T21:21:40;10.40;78.30
13148;DHT22;6639;50.956;4.242;2023-02-08T21:24:07;10.20;78.20
13148;DHT22;6639;50.956;4.242;2023-02-08T21:26:36;10.30;78.50
13148;DHT22;6639;50.956;4.242;2023-02-08T21:29:03;10.30;78.80
13148;DHT22;6639;50.956;4.242;2023-02-08T21:31:33;10.30;78.80
13148;DHT22;6639;50.956;4.242;2023-02-08T21:34:02;10.30;78.70
13148;DHT22;6639;50.956;4.242;2023-02-08T21:36:30;10.30;78.30
13148;DHT22;6639;50.956;4.242;2023-02-08T21:38:59;10.30;78.40
13148;DHT22;6639;50.956;4.242;2023-02-08T21:41:28;10.10;78.00
13148;DHT22;6639;50.956;4.242;2023-02-08T21:43:57;10.10;78.40
13148;DHT22;6639;50.956;4.242;2023-02-08T21:46:25;10.10;78.30
13148;DHT22;6639;50.956;4.242;2023-02-08T21:48:53;10.00;78.50
13148;DHT22;6639;50.956;4.242;2023-02-08T21:51:40;10.00;78.60
13148;DHT22;6639;50.956;4.242;2023-02-08T21:54:27;10.00;78.60
13148;DHT22;6639;50.956;4.242;2023-02-08T22:17:55;8.50;75.80
13148;DHT22;6639;50.956;4.242;2023-02-08T22:20:23;8.50;74.70
13148;DHT22;6639;50.956;4.242;2023-02-08T22:22:53;8.40;76.20
13148;DHT22;6639;50.956;4.242;2023-02-08T22:25:23;8.40;75.00
13148;DHT22;6639;50.956;4.242;2023-02-08T22:27:50;8.40;76.60
13148;DHT22;6639;50.956;4.242;2023-02-08T22:30:20;8.50;76.50
13148;DHT22;6639;50.956;4.242;2023-02-08T22:32:48;8.20;76.20
13148;DHT22;6639;50.956;4.242;2023-02-08T22:35:17;7.50;77.10
13148;DHT22;6639;50.956;4.242;2023-02-08T22:37:47;7.30;78.90
13148;DHT22;6639;50.956;4.242;2023-02-08T22:43:15;6.60;81.30
13148;DHT22;6639;50.956;4.242;2023-02-08T22:45:43;6.70;81.80
13148;DHT22;6639;50.956;4.242;2023-02-08T22:48:10;6.90;80.60
13148;DHT22;6639;50.956;4.242;2023-02-08T22:50:39;7.20;80.80
13148;DHT22;6639;50.956;4.242;2023-02-08T22:53:09;7.60;79.70
13148;DHT22;6639;50.956;4.242;2023-02-08T22:55:36;7.80;78.60
13148;DHT22;6639;50.956;4.242;2023-02-08T22:58:11;7.90;78.10
13148;DHT22;6639;50.956;4.242;2023-02-08T23:00:44;7.60;78.50
13148;DHT22;6639;50.956;4.242;2023-02-08T23:03:13;7.70;78.20
13148;DHT22;6639;50.956;4.242;2023-02-08T23:05:42;7.70;77.50
13148;DHT22;6639;50.956;4.242;2023-02-08T23:08:10;8.00;78.40
13148;DHT22;6639;50.956;4.242;2023-02-08T23:10:38;8.20;78.10
13148;DHT22;6639;50.956;4.242;2023-02-08T23:13:05;8.30;78.50
13148;DHT22;6639;50.956;4.242;2023-02-08T23:15:37;8.40;78.20
13148;DHT22;6639;50.956;4.242;2023-02-08T23:18:06;8.50;77.60
13148;DHT22;6639;50.956;4.242;2023-02-08T23:21:10;8.30;76.90
13148;DHT22;6639;50.956;4.242;2023-02-08T23:23:41;7.50;79.20
13148;DHT22;6639;50.956;4.242;2023-02-08T23:26:13;7.70;80.00
13148;DHT22;6639;50.956;4.242;2023-02-08T23:28:49;7.60;79.20
13148;DHT22;6639;50.956;4.242;2023-02-08T23:31:16;7.30;79.50
13148;DHT22;6639;50.956;4.242;2023-02-08T23:33:44;6.80;79.40
13148;DHT22;6639;50.956;4.242;2023-02-08T23:36:14;7.10;81.40
13148;DHT22;6639;50.956;4.242;2023-02-08T23:38:44;7.10;79.90
13148;DHT22;6639;50.956;4.242;2023-02-08T23:41:13;7.40;80.00
13148;DHT22;6639;50.956;4.242;2023-02-08T23:43:41;7.60;80.00
13148;DHT22;6639;50.956;4.242;2023-02-08T23:46:14;8.00;79.30
13148;DHT22;6639;50.956;4.242;2023-02-08T23:48:41;8.00;78.80
13148;DHT22;6639;50.956;4.242;2023-02-08T23:51:12;8.00;78.70
13148;DHT22;6639;50.956;4.242;2023-02-08T23:53:39;8.10;78.40
13148;DHT22;6639;50.956;4.242;2023-02-08T23:56:12;8.40;77.90
13148;DHT22;6639;50.956;4.242;2023-02-08T23:58:40;8.50;77.60
